Time;durP1;ratioP1;P1;durP2;ratioP2;P2;SDS_P1;SDS_P2;PMS_P1;PMS_P2;Temp;Humidity;BMP_temperature;BMP_pressure;BME280_temperature;BME280_humidity;BME280_pressure;Samples;Min_cycle;Max_cycle;Signal;HPM_P1;HPM_P2
2021/01/30 00:01:44;;;;;;;;;;;13.10;72.70;;;;;;5137558;27;20345;-72
2021/01/30 00:04:13;;;;;;;;;;;13.10;72.70;;;;;;5137564;27;19918;-74
2021/01/30 00:06:46;;;;;;;;;;;13.10;72.70;;;;;;5137564;27;19908;-75
2021/01/30 00:09:12;;;;;;;;;;;13.10;71.40;;;;;;5138612;27;19907;-77
2021/01/30 00:11:37;;;;;;;;;;;13.10;71.90;;;;;;5148351;27;19942;-70
2021/01/30 00:14:03;;;;;;;;;;;13.00;71.10;;;;;;5148338;27;20357;-74
2021/01/30 00:16:28;;;;;;;;;;;13.10;69.70;;;;;;5136616;27;19998;-76
2021/01/30 00:18:55;;;;;;;;;;;13.00;68.60;;;;;;5136837;27;19970;-73
2021/01/30 00:21:23;;;;;;;;;;;13.00;65.40;;;;;;5136183;27;19923;-76
2021/01/30 00:23:51;;;;;;;;;;;13.00;65.10;;;;;;5136835;27;20360;-73
2021/01/30 00:26:17;;;;;;;;;;;13.00;64.80;;;;;;5136749;27;20070;-79
2021/01/30 00:28:42;;;;;;;;;;;13.00;67.10;;;;;;5137249;27;19961;-75
2021/01/30 00:31:08;;;;;;;;;;;13.00;67.20;;;;;;5136690;27;19918;-70
2021/01/30 00:33:33;;;;;;;;;;;13.00;67.30;;;;;;5135619;27;19907;-73
2021/01/30 00:35:59;;;;;;;;;;;13.00;67.00;;;;;;5136517;27;20010;-66
2021/01/30 00:38:25;;;;;;;;;;;13.00;67.30;;;;;;5136139;27;19985;-75
2021/01/30 00:40:51;;;;;;;;;;;13.00;64.10;;;;;;5136073;27;20049;-78
2021/01/30 00:43:17;;;;;;;;;;;13.00;66.60;;;;;;5136147;27;19972;-68
2021/01/30 00:45:42;;;;;;;;;;;13.00;66.20;;;;;;5136013;27;20360;-75
2021/01/30 00:48:08;;;;;;;;;;;13.00;66.00;;;;;;5135783;27;20202;-67
2021/01/30 00:50:33;;;;;;;;;;;12.90;65.80;;;;;;5135887;27;20313;-78
2021/01/30 00:52:59;;;;;;;;;;;12.90;65.90;;;;;;5135802;27;20287;-78
2021/01/30 00:55:24;;;;;;;;;;;13.00;66.00;;;;;;5135951;27;19933;-77
2021/01/30 00:57:50;;;;;;;;;;;12.90;65.90;;;;;;5135804;27;19907;-79
2021/01/30 01:00:21;;;;;;;;;;;12.90;66.20;;;;;;5135712;27;19915;-76
2021/01/30 01:02:47;;;;;;;;;;;12.90;64.10;;;;;;5117304;27;19947;-74
2021/01/30 01:05:13;;;;;;;;;;;12.80;67.00;;;;;;5135896;27;19915;-77
2021/01/30 01:07:39;;;;;;;;;;;12.80;67.20;;;;;;5135908;27;19911;-74
2021/01/30 01:10:05;;;;;;;;;;;12.80;66.80;;;;;;5138614;22;19925;-67
2021/01/30 01:12:30;;;;;;;;;;;12.70;66.90;;;;;;5074473;28;19920;-65
2021/01/30 01:14:56;;;;;;;;;;;12.80;67.40;;;;;;5074146;28;19969;-64
2021/01/30 01:17:21;;;;;;;;;;;12.80;67.20;;;;;;5074360;28;20337;-67
2021/01/30 01:19:47;;;;;;;;;;;12.80;67.40;;;;;;5074196;28;19916;-66
2021/01/30 01:22:14;;;;;;;;;;;12.70;65.90;;;;;;5073637;28;20369;-73
2021/01/30 01:24:39;;;;;;;;;;;12.70;67.30;;;;;;5072963;28;19912;-66
2021/01/30 01:27:05;;;;;;;;;;;12.70;67.20;;;;;;5074203;28;19908;-68
2021/01/30 01:29:30;;;;;;;;;;;12.70;67.50;;;;;;5074127;28;19954;-67
2021/01/30 01:31:56;;;;;;;;;;;12.70;67.30;;;;;;5074483;28;19961;-66
2021/01/30 01:34:23;;;;;;;;;;;12.80;67.30;;;;;;5074157;28;20410;-66
2021/01/30 01:36:52;;;;;;;;;;;12.80;67.00;;;;;;5074083;28;19913;-65
2021/01/30 01:39:18;;;;;;;;;;;12.80;64.00;;;;;;5073944;28;19920;-67
2021/01/30 01:41:43;;;;;;;;;;;12.70;66.60;;;;;;5074052;28;19966;-66
2021/01/30 01:44:09;;;;;;;;;;;12.70;66.10;;;;;;5073688;28;19955;-65
2021/01/30 01:46:38;;;;;;;;;;;12.70;66.00;;;;;;5073895;28;19952;-66
2021/01/30 01:49:10;;;;;;;;;;;12.60;66.70;;;;;;5073971;28;19954;-65
2021/01/30 01:51:38;;;;;;;;;;;12.50;67.20;;;;;;5073910;28;19912;-65
2021/01/30 01:54:06;;;;;;;;;;;12.50;67.60;;;;;;5074038;28;20319;-65
2021/01/30 01:56:33;;;;;;;;;;;12.40;68.00;;;;;;5073572;28;19970;-65
2021/01/30 01:59:02;;;;;;;;;;;12.40;66.90;;;;;;5072330;28;20266;-68
2021/01/30 02:01:29;;;;;;;;;;;12.40;66.70;;;;;;5073892;28;19908;-65
2021/01/30 02:03:56;;;;;;;;;;;12.40;67.90;;;;;;5073744;28;19959;-66
2021/01/30 02:06:22;;;;;;;;;;;12.50;65.40;;;;;;5073685;28;20274;-66
2021/01/30 02:08:48;;;;;;;;;;;12.50;64.10;;;;;;5073691;28;19921;-65
2021/01/30 02:11:14;;;;;;;;;;;12.60;64.40;;;;;;5073195;28;19920;-66
2021/01/30 02:13:45;;;;;;;;;;;12.60;65.20;;;;;;5074013;28;20003;-65
2021/01/30 02:16:30;;;;;;;;;;;12.60;65.30;;;;;;5073649;28;19954;-66
2021/01/30 02:19:19;;;;;;;;;;;12.70;62.60;;;;;;5073541;28;19912;-66
2021/01/30 02:21:45;;;;;;;;;;;12.70;62.70;;;;;;5073378;28;19999;-66
2021/01/30 02:24:10;;;;;;;;;;;12.70;64.20;;;;;;5073655;28;19947;-79
2021/01/30 02:26:39;;;;;;;;;;;12.60;64.70;;;;;;5073551;28;20419;-65
2021/01/30 02:29:19;;;;;;;;;;;12.50;62.80;;;;;;5073587;28;19958;-67
2021/01/30 02:32:01;;;;;;;;;;;12.50;62.30;;;;;;5073360;28;19908;-67
2021/01/30 02:34:45;;;;;;;;;;;12.50;62.20;;;;;;5072039;28;20389;-65
2021/01/30 02:37:14;;;;;;;;;;;12.50;62.10;;;;;;5073656;28;19913;-68
2021/01/30 02:39:47;;;;;;;;;;;12.50;64.60;;;;;;5073140;28;20277;-66
2021/01/30 02:42:12;;;;;;;;;;;12.50;62.00;;;;;;5073427;28;19909;-66
2021/01/30 02:44:39;;;;;;;;;;;12.60;64.20;;;;;;5073165;28;19912;-69
2021/01/30 02:47:08;;;;;;;;;;;12.50;64.40;;;;;;5073534;28;19908;-66
2021/01/30 02:49:35;;;;;;;;;;;12.40;65.10;;;;;;5073434;28;19919;-67
2021/01/30 02:52:13;;;;;;;;;;;12.40;66.00;;;;;;5073501;28;20270;-65
2021/01/30 02:54:38;;;;;;;;;;;12.30;63.00;;;;;;5073557;28;19940;-66
2021/01/30 02:57:05;;;;;;;;;;;12.20;65.60;;;;;;5075401;28;20009;-66
2021/01/30 02:59:32;;;;;;;;;;;12.20;66.20;;;;;;5077080;28;19916;-66
2021/01/30 03:01:58;;;;;;;;;;;12.20;66.90;;;;;;5077257;28;19913;-65
2021/01/30 03:04:27;;;;;;;;;;;12.30;65.90;;;;;;5077211;28;19908;-66
2021/01/30 03:06:58;;;;;;;;;;;12.30;63.50;;;;;;5077793;28;19947;-68
2021/01/30 03:09:30;;;;;;;;;;;12.30;63.20;;;;;;5077337;28;19963;-72
2021/01/30 03:12:04;;;;;;;;;;;12.30;65.60;;;;;;5077165;28;19947;-75
2021/01/30 03:14:29;;;;;;;;;;;12.40;62.70;;;;;;5077559;28;19919;-76
2021/01/30 03:16:56;;;;;;;;;;;12.40;65.00;;;;;;5076476;28;20001;-75
2021/01/30 03:19:24;;;;;;;;;;;12.40;64.90;;;;;;5077148;28;19916;-71
2021/01/30 03:21:52;;;;;;;;;;;12.30;64.90;;;;;;5076642;28;19931;-77
2021/01/30 03:24:18;;;;;;;;;;;12.30;64.80;;;;;;5076582;28;19913;-73
2021/01/30 03:26:44;;;;;;;;;;;12.30;64.70;;;;;;5076449;28;19916;-77
2021/01/30 03:29:15;;;;;;;;;;;12.30;65.00;;;;;;5076566;28;19909;-77
2021/01/30 03:31:41;;;;;;;;;;;12.30;62.50;;;;;;5076231;28;19916;-77
2021/01/30 03:34:08;;;;;;;;;;;12.30;65.00;;;;;;5075399;28;19908;-73
2021/01/30 03:36:34;;;;;;;;;;;12.30;65.40;;;;;;5076352;28;19915;-78
2021/01/30 03:39:01;;;;;;;;;;;12.30;65.00;;;;;;5076166;28;20019;-77
2021/01/30 03:41:27;;;;;;;;;;;12.30;63.60;;;;;;5075334;28;20365;-75
2021/01/30 03:43:52;;;;;;;;;;;12.30;65.10;;;;;;5075836;28;19975;-77
2021/01/30 03:46:18;;;;;;;;;;;12.30;65.20;;;;;;5076096;28;20284;-76
2021/01/30 03:48:43;;;;;;;;;;;12.30;65.00;;;;;;5076482;28;20445;-74
2021/01/30 03:51:09;;;;;;;;;;;12.20;65.40;;;;;;5075583;28;20262;-72
2021/01/30 03:53:37;;;;;;;;;;;12.10;65.60;;;;;;5074562;28;20295;-75
2021/01/30 03:56:03;;;;;;;;;;;12.20;63.60;;;;;;5074791;28;20368;-71
2021/01/30 03:58:28;;;;;;;;;;;12.20;66.40;;;;;;5074857;28;19955;-77
2021/01/30 04:00:54;;;;;;;;;;;12.20;66.00;;;;;;5074258;28;19909;-70
2021/01/30 04:03:20;;;;;;;;;;;12.10;66.50;;;;;;5074562;28;19915;-65
2021/01/30 04:05:45;;;;;;;;;;;12.10;66.70;;;;;;5074248;28;19908;-67
2021/01/30 04:08:11;;;;;;;;;;;12.00;67.10;;;;;;5073119;28;20388;-69
2021/01/30 04:10:37;;;;;;;;;;;11.80;67.20;;;;;;5074029;28;20005;-68
2021/01/30 04:13:05;;;;;;;;;;;11.70;69.80;;;;;;5074748;28;20317;-68
2021/01/30 04:15:33;;;;;;;;;;;11.50;69.90;;;;;;5075670;28;19959;-67
2021/01/30 04:17:58;;;;;;;;;;;11.40;71.20;;;;;;5075583;28;20373;-66
2021/01/30 04:20:24;;;;;;;;;;;11.30;71.20;;;;;;5075177;28;19923;-69
2021/01/30 04:22:50;;;;;;;;;;;11.20;72.40;;;;;;5075676;28;19909;-68
2021/01/30 04:25:16;;;;;;;;;;;11.20;72.70;;;;;;5075500;28;19995;-66
2021/01/30 04:27:42;;;;;;;;;;;11.40;73.40;;;;;;5075534;28;20353;-68
2021/01/30 04:30:08;;;;;;;;;;;11.40;72.10;;;;;;5073893;28;19915;-65
2021/01/30 04:32:33;;;;;;;;;;;11.40;71.10;;;;;;5074919;28;19908;-66
2021/01/30 04:34:59;;;;;;;;;;;11.40;72.40;;;;;;5074872;28;20035;-66
2021/01/30 04:37:24;;;;;;;;;;;11.40;72.60;;;;;;5075206;28;19909;-67
2021/01/30 04:39:50;;;;;;;;;;;11.40;72.30;;;;;;5074897;28;20347;-66
2021/01/30 04:42:21;;;;;;;;;;;11.30;72.00;;;;;;5075066;28;19954;-73
2021/01/30 04:44:54;;;;;;;;;;;11.30;67.70;;;;;;5075087;28;20269;-73
2021/01/30 04:47:37;;;;;;;;;;;11.20;67.60;;;;;;5074663;28;19908;-71
2021/01/30 04:50:22;;;;;;;;;;;11.20;68.40;;;;;;5074888;28;19908;-72
2021/01/30 04:52:50;;;;;;;;;;;11.10;67.80;;;;;;5075116;28;20353;-70
2021/01/30 04:55:22;;;;;;;;;;;10.90;67.20;;;;;;5075152;28;20430;-77
2021/01/30 04:58:01;;;;;;;;;;;10.90;72.80;;;;;;5074956;28;19959;-73
2021/01/30 05:00:27;;;;;;;;;;;10.90;69.00;;;;;;5074754;28;20008;-76
2021/01/30 05:03:09;;;;;;;;;;;10.80;74.00;;;;;;5074881;28;19948;-73
2021/01/30 05:05:35;;;;;;;;;;;10.90;69.30;;;;;;5074745;28;19915;-77
2021/01/30 05:08:21;;;;;;;;;;;10.90;73.90;;;;;;5074684;28;20354;-74
2021/01/30 05:10:58;;;;;;;;;;;10.90;68.90;;;;;;5075112;28;20018;-77
2021/01/30 05:13:30;;;;;;;;;;;10.90;69.00;;;;;;5076907;28;19915;-72
2021/01/30 05:15:58;;;;;;;;;;;10.80;68.30;;;;;;5076121;28;19912;-69
2021/01/30 05:18:29;;;;;;;;;;;10.70;74.60;;;;;;5074240;28;20310;-73
2021/01/30 05:21:01;;;;;;;;;;;10.60;69.60;;;;;;5073510;28;20277;-78
2021/01/30 05:23:27;;;;;;;;;;;10.60;69.60;;;;;;5074331;28;19909;-75
2021/01/30 05:25:57;;;;;;;;;;;10.50;74.10;;;;;;5074293;28;19908;-78
2021/01/30 05:28:28;;;;;;;;;;;10.50;70.00;;;;;;5074338;28;19916;-73
2021/01/30 05:30:54;;;;;;;;;;;10.50;69.20;;;;;;5073977;28;19958;-77
2021/01/30 05:33:30;;;;;;;;;;;10.30;73.40;;;;;;5074242;28;20350;-73
2021/01/30 05:36:01;;;;;;;;;;;10.10;69.60;;;;;;5074274;28;19999;-69
2021/01/30 05:38:30;;;;;;;;;;;10.00;74.60;;;;;;5074271;28;19958;-73
2021/01/30 05:41:02;;;;;;;;;;;9.90;72.70;;;;;;5074119;28;19919;-72
2021/01/30 05:43:46;;;;;;;;;;;9.90;77.20;;;;;;5074012;28;19915;-68
2021/01/30 05:46:16;;;;;;;;;;;10.00;72.50;;;;;;5074390;28;19916;-77
2021/01/30 05:48:43;;;;;;;;;;;10.10;76.30;;;;;;5074176;28;19908;-78
2021/01/30 05:51:18;;;;;;;;;;;10.20;76.10;;;;;;5073860;28;19909;-76
2021/01/30 05:53:44;;;;;;;;;;;10.20;70.90;;;;;;5074128;28;19908;-75
2021/01/30 05:56:10;;;;;;;;;;;10.30;75.50;;;;;;5074153;28;19908;-75
2021/01/30 05:58:39;;;;;;;;;;;10.40;74.80;;;;;;5074299;28;20251;-76
2021/01/30 06:01:16;;;;;;;;;;;10.50;75.10;;;;;;5073973;28;19959;-69
2021/01/30 06:03:54;;;;;;;;;;;10.40;69.80;;;;;;5072675;28;20011;-71
2021/01/30 06:06:20;;;;;;;;;;;10.30;70.00;;;;;;5074104;28;19915;-71
2021/01/30 06:08:57;;;;;;;;;;;10.30;74.90;;;;;;5073960;28;20367;-76
2021/01/30 06:11:23;;;;;;;;;;;10.30;70.70;;;;;;5073725;28;20385;-70
2021/01/30 06:13:52;;;;;;;;;;;10.10;74.90;;;;;;5073841;28;19912;-72
2021/01/30 06:16:34;;;;;;;;;;;10.10;71.30;;;;;;5074295;28;19932;-72
2021/01/30 06:19:08;;;;;;;;;;;10.10;76.30;;;;;;5073995;28;19912;-74
2021/01/30 06:21:34;;;;;;;;;;;10.20;76.40;;;;;;5072650;28;19916;-77
2021/01/30 06:24:03;;;;;;;;;;;10.30;75.70;;;;;;5073897;28;19920;-76
2021/01/30 06:26:29;;;;;;;;;;;10.40;75.80;;;;;;5073846;28;19934;-68
2021/01/30 06:29:02;;;;;;;;;;;10.50;75.20;;;;;;5073693;28;19954;-75
2021/01/30 06:31:29;;;;;;;;;;;10.60;69.80;;;;;;5075237;28;19962;-73
2021/01/30 06:34:16;;;;;;;;;;;10.60;75.00;;;;;;5078294;28;19914;-69
2021/01/30 06:36:47;;;;;;;;;;;10.50;69.50;;;;;;5063403;28;19908;-71
2021/01/30 06:39:13;;;;;;;;;;;10.30;75.00;;;;;;5077997;28;19912;-74
2021/01/30 06:41:40;;;;;;;;;;;10.30;75.70;;;;;;5077860;28;19952;-74
2021/01/30 06:44:06;;;;;;;;;;;10.40;75.80;;;;;;5077573;28;19948;-73
2021/01/30 06:46:32;;;;;;;;;;;10.50;74.50;;;;;;5077491;28;19998;-68
2021/01/30 06:49:14;;;;;;;;;;;10.40;75.10;;;;;;5077346;28;20322;-72
2021/01/30 06:51:40;;;;;;;;;;;10.30;75.00;;;;;;5077610;28;19908;-73
2021/01/30 06:54:21;;;;;;;;;;;10.30;74.70;;;;;;5077759;28;19955;-73
2021/01/30 06:56:51;;;;;;;;;;;10.20;70.70;;;;;;5077371;28;19915;-75
2021/01/30 06:59:21;;;;;;;;;;;10.30;76.20;;;;;;5078635;28;19970;-72
2021/01/30 07:01:48;;;;;;;;;;;10.40;70.80;;;;;;5077280;28;19995;-67
2021/01/30 07:04:32;;;;;;;;;;;10.50;75.00;;;;;;5077005;28;19913;-69
2021/01/30 07:07:00;;;;;;;;;;;10.60;70.20;;;;;;5077144;28;19909;-71
2021/01/30 07:09:42;;;;;;;;;;;10.70;70.90;;;;;;5077491;28;19961;-75
2021/01/30 07:12:13;;;;;;;;;;;10.80;69.90;;;;;;5076637;28;19925;-76
2021/01/30 07:14:57;;;;;;;;;;;10.90;68.20;;;;;;5077140;28;19908;-73
2021/01/30 07:17:38;;;;;;;;;;;11.00;69.20;;;;;;5076706;28;19909;-70
2021/01/30 07:20:10;;;;;;;;;;;11.10;69.20;;;;;;5077061;28;19921;-73
2021/01/30 07:22:47;;;;;;;;;;;11.20;68.90;;;;;;5077887;28;19908;-79
2021/01/30 07:25:16;;;;;;;;;;;11.20;68.40;;;;;;5077048;28;19908;-74
2021/01/30 07:27:47;;;;;;;;;;;11.20;73.90;;;;;;5075253;28;19913;-73
2021/01/30 07:30:15;;;;;;;;;;;11.20;74.30;;;;;;5077030;28;20350;-71
2021/01/30 07:32:46;;;;;;;;;;;11.30;74.40;;;;;;5076550;28;19916;-77
2021/01/30 07:35:18;;;;;;;;;;;11.40;74.20;;;;;;5076673;28;20354;-70
2021/01/30 07:37:52;;;;;;;;;;;11.60;67.80;;;;;;5076543;28;19947;-73
2021/01/30 07:40:19;;;;;;;;;;;11.70;67.50;;;;;;5076568;28;19917;-71
2021/01/30 07:42:58;;;;;;;;;;;11.60;72.60;;;;;;5074920;28;20439;-69
2021/01/30 07:45:43;;;;;;;;;;;11.60;67.20;;;;;;5076184;28;20411;-75
2021/01/30 07:48:12;;;;;;;;;;;11.60;73.10;;;;;;5074629;28;19932;-78
2021/01/30 07:50:40;;;;;;;;;;;11.80;67.20;;;;;;5076176;28;19959;-80
2021/01/30 07:53:08;;;;;;;;;;;11.80;72.60;;;;;;5077154;28;20425;-76
2021/01/30 07:55:35;;;;;;;;;;;11.80;72.30;;;;;;5076088;28;19924;-81
2021/01/30 07:58:00;;;;;;;;;;;11.80;72.40;;;;;;5076307;28;19909;-79
2021/01/30 08:00:32;;;;;;;;;;;11.80;71.00;;;;;;5075614;28;20019;-70
2021/01/30 08:03:17;;;;;;;;;;;11.80;66.20;;;;;;5075895;28;19912;-67
2021/01/30 08:05:46;;;;;;;;;;;11.80;66.00;;;;;;5075763;28;19934;-66
2021/01/30 08:08:11;;;;;;;;;;;11.80;66.00;;;;;;5076178;28;19986;-80
2021/01/30 08:10:55;;;;;;;;;;;11.80;70.20;;;;;;5075571;28;19959;-73
2021/01/30 08:13:33;;;;;;;;;;;11.90;66.00;;;;;;5075561;28;19934;-72
2021/01/30 08:16:02;;;;;;;;;;;11.90;66.10;;;;;;5075402;28;19957;-67
2021/01/30 08:18:27;;;;;;;;;;;11.90;66.20;;;;;;5075553;28;19916;-67
2021/01/30 08:21:08;;;;;;;;;;;11.80;70.40;;;;;;5075474;28;20280;-76
2021/01/30 08:23:40;;;;;;;;;;;11.70;66.00;;;;;;5075558;28;19915;-79
2021/01/30 08:26:11;;;;;;;;;;;11.70;71.90;;;;;;5075491;28;19909;-71
2021/01/30 08:28:42;;;;;;;;;;;11.60;66.20;;;;;;5075402;28;19912;-67
2021/01/30 08:31:30;;;;;;;;;;;11.60;66.80;;;;;;5075537;28;19916;-79
2021/01/30 08:34:07;;;;;;;;;;;11.60;66.30;;;;;;5075211;28;19909;-75
2021/01/30 08:36:35;;;;;;;;;;;11.40;66.90;;;;;;5075168;28;20292;-76
2021/01/30 08:39:04;;;;;;;;;;;11.50;67.10;;;;;;5075254;28;20357;-77
2021/01/30 08:41:38;;;;;;;;;;;11.60;72.90;;;;;;5074942;28;19912;-82
2021/01/30 08:44:27;;;;;;;;;;;11.70;72.80;;;;;;5075003;28;19916;-82
2021/01/30 08:47:06;;;;;;;;;;;11.80;66.80;;;;;;5075237;28;19908;-77
2021/01/30 08:49:33;;;;;;;;;;;11.70;66.50;;;;;;5075230;28;19909;-76
2021/01/30 08:52:20;;;;;;;;;;;11.80;71.30;;;;;;5075264;28;19912;-73
2021/01/30 08:54:49;;;;;;;;;;;11.80;66.70;;;;;;5074326;28;20251;-76
2021/01/30 08:57:32;;;;;;;;;;;11.90;72.40;;;;;;5074969;28;19909;-74
2021/01/30 08:59:58;;;;;;;;;;;12.00;66.40;;;;;;5074466;28;20396;-74
2021/01/30 09:02:27;;;;;;;;;;;12.00;72.40;;;;;;5074720;28;19918;-79
2021/01/30 09:04:58;;;;;;;;;;;12.00;66.70;;;;;;5074549;28;19909;-80
2021/01/30 09:07:44;;;;;;;;;;;12.10;66.40;;;;;;5074947;28;19934;-77
2021/01/30 09:10:12;;;;;;;;;;;12.10;65.90;;;;;;5074971;28;19912;-79
2021/01/30 09:12:58;;;;;;;;;;;12.20;66.70;;;;;;5075101;28;20473;-79
2021/01/30 09:15:41;;;;;;;;;;;12.30;66.10;;;;;;5074812;28;19909;-75
2021/01/30 09:18:17;;;;;;;;;;;12.40;66.30;;;;;;5074892;28;20003;-79
2021/01/30 09:21:01;;;;;;;;;;;12.50;65.80;;;;;;5074703;28;19917;-79
2021/01/30 09:23:36;;;;;;;;;;;12.70;65.20;;;;;;5074056;28;19909;-67
2021/01/30 09:26:09;;;;;;;;;;;12.70;65.30;;;;;;5074407;28;19960;-76
2021/01/30 09:28:34;;;;;;;;;;;12.80;65.20;;;;;;5073349;28;20007;-73
2021/01/30 09:31:03;;;;;;;;;;;12.90;68.50;;;;;;5073093;28;19912;-81
2021/01/30 09:33:31;;;;;;;;;;;12.90;69.20;;;;;;5073879;28;20315;-75
2021/01/30 09:36:05;;;;;;;;;;;13.00;68.70;;;;;;5074023;28;19908;-67
2021/01/30 09:38:39;;;;;;;;;;;13.00;64.70;;;;;;5073826;28;20435;-68
2021/01/30 09:41:06;;;;;;;;;;;13.10;65.00;;;;;;5073666;28;19912;-69
2021/01/30 09:43:31;;;;;;;;;;;13.10;68.50;;;;;;5074070;28;19914;-78
2021/01/30 09:45:58;;;;;;;;;;;13.10;68.30;;;;;;5073947;28;19908;-69
2021/01/30 09:48:24;;;;;;;;;;;13.20;68.50;;;;;;5072228;28;20312;-71
2021/01/30 09:50:59;;;;;;;;;;;13.20;67.60;;;;;;5072230;28;19908;-73
2021/01/30 09:53:47;;;;;;;;;;;13.20;64.90;;;;;;5073885;28;19947;-73
2021/01/30 09:56:14;;;;;;;;;;;13.30;64.90;;;;;;5062485;28;19978;-72
2021/01/30 09:58:42;;;;;;;;;;;13.30;68.00;;;;;;5073052;28;20268;-69
2021/01/30 10:01:20;;;;;;;;;;;13.40;67.90;;;;;;5073749;28;19928;-72
2021/01/30 10:03:46;;;;;;;;;;;13.50;68.20;;;;;;5072289;28;19915;-67
2021/01/30 10:06:16;;;;;;;;;;;13.60;67.50;;;;;;5073674;28;19909;-68
2021/01/30 10:08:42;;;;;;;;;;;13.70;65.00;;;;;;5073506;28;19931;-70
2021/01/30 10:11:17;;;;;;;;;;;13.80;67.40;;;;;;5073256;28;19977;-65
2021/01/30 10:13:56;;;;;;;;;;;13.90;65.30;;;;;;5072914;28;19908;-68
2021/01/30 10:16:44;;;;;;;;;;;14.00;64.50;;;;;;5073161;28;19916;-72
2021/01/30 10:19:18;;;;;;;;;;;14.10;64.50;;;;;;5074039;28;20392;-71
2021/01/30 10:21:44;;;;;;;;;;;14.20;64.30;;;;;;5073024;28;19909;-70
2021/01/30 10:24:11;;;;;;;;;;;14.20;66.30;;;;;;5073250;28;19915;-69
2021/01/30 10:26:36;;;;;;;;;;;14.30;66.10;;;;;;5074850;28;19909;-73
2021/01/30 10:29:07;;;;;;;;;;;14.40;65.80;;;;;;5073543;28;19915;-68
2021/01/30 10:31:38;;;;;;;;;;;14.60;63.70;;;;;;5073027;28;20213;-71
2021/01/30 10:34:03;;;;;;;;;;;14.60;63.80;;;;;;5073222;28;20021;-73
2021/01/30 10:36:30;;;;;;;;;;;14.70;64.70;;;;;;5073305;28;19908;-68
2021/01/30 10:38:58;;;;;;;;;;;14.90;64.50;;;;;;5073035;28;19959;-69
2021/01/30 10:41:25;;;;;;;;;;;15.00;64.20;;;;;;5072042;28;20004;-72
2021/01/30 10:43:56;;;;;;;;;;;15.10;63.60;;;;;;5071970;28;19909;-72
2021/01/30 10:46:24;;;;;;;;;;;15.10;62.60;;;;;;5073377;28;19954;-72
2021/01/30 10:48:50;;;;;;;;;;;15.20;61.50;;;;;;5073304;28;19909;-72
2021/01/30 10:51:20;;;;;;;;;;;15.20;62.20;;;;;;5072895;28;20254;-72
2021/01/30 10:53:46;;;;;;;;;;;15.30;62.40;;;;;;5073129;28;20319;-67
2021/01/30 10:56:23;;;;;;;;;;;15.30;61.90;;;;;;5073105;28;19909;-67
2021/01/30 10:58:51;;;;;;;;;;;15.40;61.30;;;;;;5072655;28;20349;-72
2021/01/30 11:01:19;;;;;;;;;;;15.50;61.60;;;;;;5073014;28;19977;-71
2021/01/30 11:03:53;;;;;;;;;;;15.60;61.00;;;;;;5073010;28;19944;-69
2021/01/30 11:06:28;;;;;;;;;;;15.60;60.40;;;;;;5072955;28;20010;-69
2021/01/30 11:08:55;;;;;;;;;;;15.70;60.30;;;;;;5072631;28;19908;-81
2021/01/30 11:11:50;;;;;;;;;;;15.80;60.30;;;;;;5071421;28;20381;-69
2021/01/30 11:14:27;;;;;;;;;;;15.80;59.60;;;;;;5072604;28;19916;-69
2021/01/30 11:16:54;;;;;;;;;;;15.80;59.90;;;;;;5073173;28;19975;-67
2021/01/30 11:19:45;;;;;;;;;;;16.00;60.00;;;;;;5076899;28;19977;-69
2021/01/30 11:22:25;;;;;;;;;;;16.00;59.50;;;;;;5072630;28;20011;-71
2021/01/30 11:25:06;;;;;;;;;;;16.10;60.50;;;;;;5074932;28;20003;-70
2021/01/30 11:27:45;;;;;;;;;;;16.30;59.50;;;;;;5076112;28;19909;-71
2021/01/30 11:30:17;;;;;;;;;;;16.40;59.30;;;;;;5076046;28;19991;-70
2021/01/30 11:32:43;;;;;;;;;;;16.40;60.60;;;;;;5076293;28;19909;-68
2021/01/30 11:35:11;;;;;;;;;;;16.50;59.40;;;;;;5075880;28;20404;-71
2021/01/30 11:37:37;;;;;;;;;;;16.60;59.10;;;;;;5074750;28;19908;-68
2021/01/30 11:40:08;;;;;;;;;;;16.60;58.80;;;;;;5075623;28;20285;-71
2021/01/30 11:42:33;;;;;;;;;;;16.70;58.70;;;;;;5074470;28;19992;-69
2021/01/30 11:45:00;;;;;;;;;;;16.80;58.50;;;;;;5075806;28;20057;-68
2021/01/30 11:47:27;;;;;;;;;;;16.80;57.60;;;;;;5075914;28;19908;-67
2021/01/30 11:49:54;;;;;;;;;;;16.80;57.20;;;;;;5075915;28;19909;-79
2021/01/30 11:52:23;;;;;;;;;;;16.90;57.10;;;;;;5074706;28;19982;-70
2021/01/30 11:54:49;;;;;;;;;;;17.00;56.70;;;;;;5075520;28;19920;-69
2021/01/30 11:57:15;;;;;;;;;;;17.00;56.50;;;;;;5076076;28;19908;-71
2021/01/30 11:59:40;;;;;;;;;;;17.10;55.30;;;;;;5075764;28;19917;-74
2021/01/30 12:02:12;;;;;;;;;;;17.10;55.30;;;;;;5075572;28;19909;-69
2021/01/30 12:04:37;;;;;;;;;;;17.10;55.20;;;;;;5075712;28;19952;-70
2021/01/30 12:07:05;;;;;;;;;;;17.10;55.20;;;;;;5075773;28;19935;-71
2021/01/30 12:09:32;;;;;;;;;;;17.10;56.30;;;;;;5075865;28;19912;-81
2021/01/30 12:11:58;;;;;;;;;;;17.20;56.50;;;;;;5074128;28;19925;-68
2021/01/30 12:14:23;;;;;;;;;;;17.20;55.90;;;;;;5075720;28;19915;-68
2021/01/30 12:16:54;;;;;;;;;;;17.20;55.90;;;;;;5075918;28;19937;-69
2021/01/30 12:19:20;;;;;;;;;;;17.30;56.20;;;;;;5075369;28;19920;-74
2021/01/30 12:21:46;;;;;;;;;;;17.30;56.20;;;;;;5075475;28;19993;-73
2021/01/30 12:24:11;;;;;;;;;;;17.40;56.40;;;;;;5075543;28;19982;-72
2021/01/30 12:26:38;;;;;;;;;;;17.40;54.00;;;;;;5074902;28;19910;-75
2021/01/30 12:29:04;;;;;;;;;;;17.30;54.90;;;;;;5073212;28;20372;-72
2021/01/30 12:31:30;;;;;;;;;;;17.30;55.30;;;;;;5075455;28;19912;-73
2021/01/30 12:33:56;;;;;;;;;;;17.40;55.80;;;;;;5075331;28;19909;-69
2021/01/30 12:36:22;;;;;;;;;;;17.40;55.60;;;;;;5075346;28;19931;-74
2021/01/30 12:38:48;;;;;;;;;;;17.40;53.90;;;;;;5075420;28;20304;-73
2021/01/30 12:41:15;;;;;;;;;;;17.40;55.00;;;;;;5075021;28;20380;-67
2021/01/30 12:43:40;;;;;;;;;;;17.40;56.30;;;;;;5075225;28;20353;-79
2021/01/30 12:46:06;;;;;;;;;;;17.40;55.60;;;;;;5075225;28;20004;-68
2021/01/30 12:48:32;;;;;;;;;;;17.30;55.70;;;;;;5074159;28;19912;-67
2021/01/30 12:50:57;;;;;;;;;;;17.30;56.20;;;;;;5074935;28;19908;-72
2021/01/30 12:53:25;;;;;;;;;;;17.30;56.00;;;;;;5074665;28;19908;-73
2021/01/30 12:55:51;;;;;;;;;;;17.30;56.40;;;;;;5074662;28;20361;-72
2021/01/30 12:58:22;;;;;;;;;;;17.30;55.50;;;;;;5074904;28;19915;-70
2021/01/30 13:00:51;;;;;;;;;;;17.40;56.50;;;;;;5074309;28;19923;-71
2021/01/30 13:03:24;;;;;;;;;;;17.40;56.70;;;;;;5073330;28;19908;-81
2021/01/30 13:05:51;;;;;;;;;;;17.50;56.60;;;;;;5073527;28;19920;-81
2021/01/30 13:08:18;;;;;;;;;;;17.50;55.90;;;;;;5073774;28;20259;-82
2021/01/30 13:10:44;;;;;;;;;;;17.60;55.50;;;;;;5073044;28;20255;-81
2021/01/30 13:13:12;;;;;;;;;;;17.60;55.20;;;;;;5073368;28;20392;-81
2021/01/30 13:15:40;;;;;;;;;;;17.60;55.20;;;;;;5072382;28;19936;-79
2021/01/30 13:18:07;;;;;;;;;;;17.60;55.60;;;;;;5074031;28;19959;-79
2021/01/30 13:21:06;;;;;;;;;;;17.60;56.00;;;;;;5076615;28;19916;-80
2021/01/30 13:23:38;;;;;;;;;;;17.60;56.30;;;;;;5068879;28;20423;-82
2021/01/30 13:26:05;;;;;;;;;;;17.60;55.80;;;;;;5056102;28;20366;-81
2021/01/30 13:28:34;;;;;;;;;;;17.50;55.60;;;;;;5073532;28;20312;-77
2021/01/30 13:31:03;;;;;;;;;;;17.50;55.60;;;;;;5072447;28;20408;-82
2021/01/30 13:33:29;;;;;;;;;;;17.50;55.80;;;;;;5072721;28;19952;-78
2021/01/30 13:35:58;;;;;;;;;;;17.40;55.70;;;;;;5073983;28;19916;-85
2021/01/30 13:38:24;;;;;;;;;;;17.40;55.70;;;;;;5071804;28;20369;-66
2021/01/30 13:40:50;;;;;;;;;;;17.40;56.30;;;;;;5073101;28;19962;-66
2021/01/30 13:43:16;;;;;;;;;;;17.40;56.10;;;;;;5073667;28;20053;-70
2021/01/30 13:45:42;;;;;;;;;;;17.30;55.40;;;;;;5073630;28;19955;-67
2021/01/30 13:48:07;;;;;;;;;;;17.30;55.50;;;;;;5073615;28;19952;-67
2021/01/30 13:50:33;;;;;;;;;;;17.30;55.80;;;;;;5073466;28;19908;-68
2021/01/30 13:52:59;;;;;;;;;;;17.40;56.00;;;;;;5072012;28;19912;-66
2021/01/30 13:55:26;;;;;;;;;;;17.60;56.10;;;;;;5072097;28;19985;-68
2021/01/30 13:57:51;;;;;;;;;;;17.80;56.80;;;;;;5073475;28;19962;-67
2021/01/30 14:00:19;;;;;;;;;;;18.00;55.20;;;;;;5073513;28;19920;-66
2021/01/30 14:02:46;;;;;;;;;;;18.10;54.40;;;;;;5073444;28;20003;-69
2021/01/30 14:05:12;;;;;;;;;;;18.10;53.60;;;;;;5067107;28;19909;-67
2021/01/30 14:07:38;;;;;;;;;;;18.20;54.30;;;;;;5062230;28;20332;-65
2021/01/30 14:10:04;;;;;;;;;;;18.20;53.80;;;;;;5063648;28;19912;-73
2021/01/30 14:12:30;;;;;;;;;;;18.20;54.10;;;;;;5063056;28;20282;-66
2021/01/30 14:14:55;;;;;;;;;;;18.20;54.10;;;;;;5055372;28;20012;-70
2021/01/30 14:17:22;;;;;;;;;;;18.20;54.40;;;;;;5060004;28;20007;-71
2021/01/30 14:19:47;;;;;;;;;;;18.10;55.00;;;;;;5072779;28;19920;-66
2021/01/30 14:22:13;;;;;;;;;;;18.10;55.30;;;;;;5072721;28;19908;-66
2021/01/30 14:24:38;;;;;;;;;;;18.10;56.50;;;;;;5072813;28;19912;-68
2021/01/30 14:27:05;;;;;;;;;;;18.10;56.80;;;;;;5072693;28;19908;-65
2021/01/30 14:29:31;;;;;;;;;;;18.00;57.30;;;;;;5060949;28;20047;-74
2021/01/30 14:31:58;;;;;;;;;;;18.00;58.30;;;;;;5052053;28;19920;-72